Germania, Argentina
Current Conditions -  °F | °C
As of 2:00 AM on Tuesday 21 Oct 2014 (Local Time) from SAAR Reporting Station
Clear Clear  
Wind Chill: 64°   Ceiling: Unl
Heat Index: 64°   Visibility: 6mi
Dew Point: 54°   Wind: 7mph
Humidity: 68%   Direction: 20°NNE
Pressure: 30.06"   Gusts: NA
Location:  34.57°S, 61.97°W
Report Text: SAAR 210500Z 02006KT CAVOK 18/12 Q1018
Loading
Personal Weather Stations






























Interactive Weather Map
Tropical Storm Tracking
New forecast layout! Learn more

10-Day Weather Forecast

Advertisements
Track Severe Weather on mobile